sensor_id;sensor_type;location;lat;lon;timestamp;temperature;humidity
18581;DHT22;9420;50.876;7.012;2024-03-06T00:01:48;6.53;92.48
18581;DHT22;9420;50.876;7.012;2024-03-06T00:04:15;6.58;92.33
18581;DHT22;9420;50.876;7.012;2024-03-06T00:06:43;6.59;92.42
18581;DHT22;9420;50.876;7.012;2024-03-06T00:09:10;6.62;92.53
18581;DHT22;9420;50.876;7.012;2024-03-06T00:11:37;6.64;92.48
18581;DHT22;9420;50.876;7.012;2024-03-06T00:14:04;6.65;92.59
18581;DHT22;9420;50.876;7.012;2024-03-06T00:16:30;6.66;92.59
18581;DHT22;9420;50.876;7.012;2024-03-06T00:18:57;6.68;92.33
18581;DHT22;9420;50.876;7.012;2024-03-06T00:21:24;6.61;92.64
18581;DHT22;9420;50.876;7.012;2024-03-06T00:23:51;6.66;92.64
18581;DHT22;9420;50.876;7.012;2024-03-06T00:26:18;6.71;92.59
18581;DHT22;9420;50.876;7.012;2024-03-06T00:28:45;6.79;92.60
18581;DHT22;9420;50.876;7.012;2024-03-06T00:31:11;6.77;92.37
18581;DHT22;9420;50.876;7.012;2024-03-06T00:33:38;6.58;92.30
18581;DHT22;9420;50.876;7.012;2024-03-06T00:36:05;6.73;92.43
18581;DHT22;9420;50.876;7.012;2024-03-06T00:38:33;6.72;92.33
18581;DHT22;9420;50.876;7.012;2024-03-06T00:41:01;6.66;92.26
18581;DHT22;9420;50.876;7.012;2024-03-06T00:43:27;6.58;92.24
18581;DHT22;9420;50.876;7.012;2024-03-06T00:45:54;6.56;92.31
18581;DHT22;9420;50.876;7.012;2024-03-06T00:48:21;6.52;92.53
18581;DHT22;9420;50.876;7.012;2024-03-06T00:50:48;6.52;92.61
18581;DHT22;9420;50.876;7.012;2024-03-06T00:53:14;6.46;92.75
18581;DHT22;9420;50.876;7.012;2024-03-06T00:55:41;6.42;92.86
18581;DHT22;9420;50.876;7.012;2024-03-06T00:58:09;6.59;92.81
18581;DHT22;9420;50.876;7.012;2024-03-06T01:00:36;6.61;92.64
18581;DHT22;9420;50.876;7.012;2024-03-06T01:03:03;6.52;92.49
18581;DHT22;9420;50.876;7.012;2024-03-06T01:05:31;6.49;92.75
18581;DHT22;9420;50.876;7.012;2024-03-06T01:07:57;6.56;92.55
18581;DHT22;9420;50.876;7.012;2024-03-06T01:10:24;6.55;92.38
18581;DHT22;9420;50.876;7.012;2024-03-06T01:12:51;6.46;92.54
18581;DHT22;9420;50.876;7.012;2024-03-06T01:15:19;6.50;92.53
18581;DHT22;9420;50.876;7.012;2024-03-06T01:17:46;6.45;92.65
18581;DHT22;9420;50.876;7.012;2024-03-06T01:20:12;6.22;92.16
18581;DHT22;9420;50.876;7.012;2024-03-06T01:22:39;6.07;92.13
18581;DHT22;9420;50.876;7.012;2024-03-06T01:25:06;5.96;92.25
18581;DHT22;9420;50.876;7.012;2024-03-06T01:27:33;5.94;92.31
18581;DHT22;9420;50.876;7.012;2024-03-06T01:29:59;5.89;92.36
18581;DHT22;9420;50.876;7.012;2024-03-06T01:32:27;5.70;92.26
18581;DHT22;9420;50.876;7.012;2024-03-06T01:34:54;5.62;92.36
18581;DHT22;9420;50.876;7.012;2024-03-06T01:37:21;5.69;92.22
18581;DHT22;9420;50.876;7.012;2024-03-06T01:39:47;5.79;92.37
18581;DHT22;9420;50.876;7.012;2024-03-06T01:42:16;5.76;92.16
18581;DHT22;9420;50.876;7.012;2024-03-06T01:44:43;5.56;91.90
18581;DHT22;9420;50.876;7.012;2024-03-06T01:47:09;5.56;92.17
18581;DHT22;9420;50.876;7.012;2024-03-06T01:49:37;5.50;92.72
18581;DHT22;9420;50.876;7.012;2024-03-06T01:52:04;5.56;92.49
18581;DHT22;9420;50.876;7.012;2024-03-06T01:54:31;5.45;92.37
18581;DHT22;9420;50.876;7.012;2024-03-06T01:56:59;5.42;92.14
18581;DHT22;9420;50.876;7.012;2024-03-06T01:59:28;5.49;92.13
18581;DHT22;9420;50.876;7.012;2024-03-06T02:01:58;5.66;92.26
18581;DHT22;9420;50.876;7.012;2024-03-06T02:04:26;5.67;92.12
18581;DHT22;9420;50.876;7.012;2024-03-06T02:06:55;5.67;92.11
18581;DHT22;9420;50.876;7.012;2024-03-06T02:09:22;5.71;91.99
18581;DHT22;9420;50.876;7.012;2024-03-06T02:11:49;5.65;92.19
18581;DHT22;9420;50.876;7.012;2024-03-06T02:14:16;5.59;92.29
18581;DHT22;9420;50.876;7.012;2024-03-06T02:16:43;5.45;91.75
18581;DHT22;9420;50.876;7.012;2024-03-06T02:19:10;5.36;91.91
18581;DHT22;9420;50.876;7.012;2024-03-06T02:21:38;5.32;92.11
18581;DHT22;9420;50.876;7.012;2024-03-06T02:24:04;5.63;92.32
18581;DHT22;9420;50.876;7.012;2024-03-06T02:26:31;5.65;92.37
18581;DHT22;9420;50.876;7.012;2024-03-06T02:28:58;5.86;92.49
18581;DHT22;9420;50.876;7.012;2024-03-06T02:31:24;5.87;92.29
18581;DHT22;9420;50.876;7.012;2024-03-06T02:33:51;5.93;92.40
18581;DHT22;9420;50.876;7.012;2024-03-06T02:36:18;5.81;92.15
18581;DHT22;9420;50.876;7.012;2024-03-06T02:38:46;5.73;92.31
18581;DHT22;9420;50.876;7.012;2024-03-06T02:41:12;5.73;92.43
18581;DHT22;9420;50.876;7.012;2024-03-06T02:43:41;5.80;92.33
18581;DHT22;9420;50.876;7.012;2024-03-06T02:46:08;5.80;92.25
18581;DHT22;9420;50.876;7.012;2024-03-06T02:48:35;5.89;92.23
18581;DHT22;9420;50.876;7.012;2024-03-06T02:51:01;5.85;92.33
18581;DHT22;9420;50.876;7.012;2024-03-06T02:53:28;5.81;92.24
18581;DHT22;9420;50.876;7.012;2024-03-06T02:55:56;5.85;92.28
18581;DHT22;9420;50.876;7.012;2024-03-06T02:58:22;5.79;92.40
18581;DHT22;9420;50.876;7.012;2024-03-06T03:00:49;5.69;92.43
18581;DHT22;9420;50.876;7.012;2024-03-06T03:03:16;5.60;92.52
18581;DHT22;9420;50.876;7.012;2024-03-06T03:05:42;5.46;92.53
18581;DHT22;9420;50.876;7.012;2024-03-06T03:08:09;5.49;92.58
18581;DHT22;9420;50.876;7.012;2024-03-06T03:10:36;5.53;92.50
18581;DHT22;9420;50.876;7.012;2024-03-06T03:13:04;5.60;92.48
18581;DHT22;9420;50.876;7.012;2024-03-06T03:15:31;5.63;92.45
18581;DHT22;9420;50.876;7.012;2024-03-06T03:17:58;5.63;92.33
18581;DHT22;9420;50.876;7.012;2024-03-06T03:20:24;5.66;92.40
18581;DHT22;9420;50.876;7.012;2024-03-06T03:22:51;5.69;92.29
18581;DHT22;9420;50.876;7.012;2024-03-06T03:25:17;5.65;92.30
18581;DHT22;9420;50.876;7.012;2024-03-06T03:27:47;5.63;92.41
18581;DHT22;9420;50.876;7.012;2024-03-06T03:30:15;5.67;92.43
18581;DHT22;9420;50.876;7.012;2024-03-06T03:32:42;5.63;92.35
18581;DHT22;9420;50.876;7.012;2024-03-06T03:35:09;5.63;92.43
18581;DHT22;9420;50.876;7.012;2024-03-06T03:37:35;5.58;92.46
18581;DHT22;9420;50.876;7.012;2024-03-06T03:40:02;5.50;92.48
18581;DHT22;9420;50.876;7.012;2024-03-06T03:42:29;5.50;92.45
18581;DHT22;9420;50.876;7.012;2024-03-06T03:44:56;5.49;92.11
18581;DHT22;9420;50.876;7.012;2024-03-06T03:47:24;5.46;91.87
18581;DHT22;9420;50.876;7.012;2024-03-06T03:49:50;5.46;91.90
18581;DHT22;9420;50.876;7.012;2024-03-06T03:52:17;5.32;91.84
18581;DHT22;9420;50.876;7.012;2024-03-06T03:54:43;5.15;91.63
18581;DHT22;9420;50.876;7.012;2024-03-06T03:57:11;4.84;91.53
18581;DHT22;9420;50.876;7.012;2024-03-06T03:59:39;4.70;91.67
18581;DHT22;9420;50.876;7.012;2024-03-06T04:02:06;4.69;91.98
18581;DHT22;9420;50.876;7.012;2024-03-06T04:04:34;4.70;91.77
18581;DHT22;9420;50.876;7.012;2024-03-06T04:07:01;4.59;91.58
18581;DHT22;9420;50.876;7.012;2024-03-06T04:09:28;4.56;91.20
18581;DHT22;9420;50.876;7.012;2024-03-06T04:11:55;4.26;91.09
18581;DHT22;9420;50.876;7.012;2024-03-06T04:14:22;4.31;91.27
18581;DHT22;9420;50.876;7.012;2024-03-06T04:16:48;4.42;91.56
18581;DHT22;9420;50.876;7.012;2024-03-06T04:19:15;4.43;91.60
18581;DHT22;9420;50.876;7.012;2024-03-06T04:21:43;4.32;91.09
18581;DHT22;9420;50.876;7.012;2024-03-06T04:24:10;4.23;91.05
18581;DHT22;9420;50.876;7.012;2024-03-06T04:26:36;4.59;91.34
18581;DHT22;9420;50.876;7.012;2024-03-06T04:29:03;4.67;91.04
18581;DHT22;9420;50.876;7.012;2024-03-06T04:31:30;4.73;91.12
18581;DHT22;9420;50.876;7.012;2024-03-06T04:33:56;4.76;90.81
18581;DHT22;9420;50.876;7.012;2024-03-06T04:36:23;4.52;90.69
18581;DHT22;9420;50.876;7.012;2024-03-06T04:38:51;4.71;90.93
18581;DHT22;9420;50.876;7.012;2024-03-06T04:41:18;4.81;90.65
18581;DHT22;9420;50.876;7.012;2024-03-06T04:43:45;4.66;90.39
18581;DHT22;9420;50.876;7.012;2024-03-06T04:46:12;4.60;90.79
18581;DHT22;9420;50.876;7.012;2024-03-06T04:48:40;4.49;91.05
18581;DHT22;9420;50.876;7.012;2024-03-06T04:51:06;4.42;91.50
18581;DHT22;9420;50.876;7.012;2024-03-06T04:53:35;4.61;91.72
18581;DHT22;9420;50.876;7.012;2024-03-06T04:56:03;4.90;91.00
18581;DHT22;9420;50.876;7.012;2024-03-06T04:58:30;4.81;91.18
18581;DHT22;9420;50.876;7.012;2024-03-06T05:00:57;4.92;90.36
18581;DHT22;9420;50.876;7.012;2024-03-06T05:03:23;5.00;90.10
18581;DHT22;9420;50.876;7.012;2024-03-06T05:05:50;5.10;89.92
18581;DHT22;9420;50.876;7.012;2024-03-06T05:08:17;4.74;90.55
18581;DHT22;9420;50.876;7.012;2024-03-06T05:10:44;4.73;90.97
18581;DHT22;9420;50.876;7.012;2024-03-06T05:13:12;4.79;91.13
18581;DHT22;9420;50.876;7.012;2024-03-06T05:15:39;4.83;91.02
18581;DHT22;9420;50.876;7.012;2024-03-06T05:18:05;4.71;91.38
18581;DHT22;9420;50.876;7.012;2024-03-06T05:20:33;4.73;91.52
18581;DHT22;9420;50.876;7.012;2024-03-06T05:23:00;4.79;91.59
18581;DHT22;9420;50.876;7.012;2024-03-06T05:25:27;4.88;91.59
18581;DHT22;9420;50.876;7.012;2024-03-06T05:27:54;4.94;91.18
18581;DHT22;9420;50.876;7.012;2024-03-06T05:30:22;4.91;90.76
18581;DHT22;9420;50.876;7.012;2024-03-06T05:32:49;4.79;90.87
18581;DHT22;9420;50.876;7.012;2024-03-06T05:35:17;4.71;91.28
18581;DHT22;9420;50.876;7.012;2024-03-06T05:37:44;4.64;91.49
18581;DHT22;9420;50.876;7.012;2024-03-06T05:40:12;4.66;91.38
18581;DHT22;9420;50.876;7.012;2024-03-06T05:42:38;4.66;91.53
18581;DHT22;9420;50.876;7.012;2024-03-06T05:45:05;4.60;91.62
18581;DHT22;9420;50.876;7.012;2024-03-06T05:47:37;4.45;91.49
18581;DHT22;9420;50.876;7.012;2024-03-06T05:50:05;4.43;91.59
18581;DHT22;9420;50.876;7.012;2024-03-06T05:52:32;4.41;91.45
18581;DHT22;9420;50.876;7.012;2024-03-06T05:54:59;4.35;91.26
18581;DHT22;9420;50.876;7.012;2024-03-06T05:57:26;4.25;91.40
18581;DHT22;9420;50.876;7.012;2024-03-06T05:59:52;4.25;91.52
18581;DHT22;9420;50.876;7.012;2024-03-06T06:02:20;4.05;91.45
18581;DHT22;9420;50.876;7.012;2024-03-06T06:04:48;4.01;91.47
18581;DHT22;9420;50.876;7.012;2024-03-06T06:07:15;3.98;91.45
18581;DHT22;9420;50.876;7.012;2024-03-06T06:09:41;3.88;91.47
18581;DHT22;9420;50.876;7.012;2024-03-06T06:12:08;3.83;91.51
18581;DHT22;9420;50.876;7.012;2024-03-06T06:14:35;3.77;91.73
18581;DHT22;9420;50.876;7.012;2024-03-06T06:17:02;3.80;91.24
18581;DHT22;9420;50.876;7.012;2024-03-06T06:19:29;3.84;91.00
18581;DHT22;9420;50.876;7.012;2024-03-06T06:21:56;3.84;90.95
18581;DHT22;9420;50.876;7.012;2024-03-06T06:24:23;3.85;90.97
18581;DHT22;9420;50.876;7.012;2024-03-06T06:26:50;3.90;91.02
18581;DHT22;9420;50.876;7.012;2024-03-06T06:29:17;4.11;90.60
18581;DHT22;9420;50.876;7.012;2024-03-06T06:31:44;4.19;90.68
18581;DHT22;9420;50.876;7.012;2024-03-06T06:34:11;4.13;90.72
18581;DHT22;9420;50.876;7.012;2024-03-06T06:36:37;4.08;90.66
18581;DHT22;9420;50.876;7.012;2024-03-06T06:39:07;4.05;90.67
18581;DHT22;9420;50.876;7.012;2024-03-06T06:41:35;4.08;90.87
18581;DHT22;9420;50.876;7.012;2024-03-06T06:44:02;4.01;90.84
18581;DHT22;9420;50.876;7.012;2024-03-06T06:46:30;4.02;90.86
18581;DHT22;9420;50.876;7.012;2024-03-06T06:48:56;4.05;91.03
18581;DHT22;9420;50.876;7.012;2024-03-06T06:51:23;3.94;91.12
18581;DHT22;9420;50.876;7.012;2024-03-06T06:53:50;3.92;91.14
18581;DHT22;9420;50.876;7.012;2024-03-06T06:56:18;3.94;91.11
18581;DHT22;9420;50.876;7.012;2024-03-06T06:58:44;4.09;91.20
18581;DHT22;9420;50.876;7.012;2024-03-06T07:01:11;4.25;90.76
18581;DHT22;9420;50.876;7.012;2024-03-06T07:03:38;4.35;90.58
18581;DHT22;9420;50.876;7.012;2024-03-06T07:06:05;4.46;90.61
18581;DHT22;9420;50.876;7.012;2024-03-06T07:08:32;4.49;90.64
18581;DHT22;9420;50.876;7.012;2024-03-06T07:10:58;4.57;90.55
18581;DHT22;9420;50.876;7.012;2024-03-06T07:13:26;4.60;90.45
18581;DHT22;9420;50.876;7.012;2024-03-06T07:15:53;4.70;90.58
18581;DHT22;9420;50.876;7.012;2024-03-06T07:18:19;4.77;90.49
18581;DHT22;9420;50.876;7.012;2024-03-06T07:20:46;4.80;90.47
18581;DHT22;9420;50.876;7.012;2024-03-06T07:23:13;4.88;90.38
18581;DHT22;9420;50.876;7.012;2024-03-06T07:25:40;4.85;90.58
18581;DHT22;9420;50.876;7.012;2024-03-06T07:28:06;4.81;90.89
18581;DHT22;9420;50.876;7.012;2024-03-06T07:30:34;4.84;90.86
18581;DHT22;9420;50.876;7.012;2024-03-06T07:33:01;4.88;90.76
18581;DHT22;9420;50.876;7.012;2024-03-06T07:35:28;4.98;90.42
18581;DHT22;9420;50.876;7.012;2024-03-06T07:37:54;5.14;90.28
18581;DHT22;9420;50.876;7.012;2024-03-06T07:40:21;5.29;90.14
18581;DHT22;9420;50.876;7.012;2024-03-06T07:42:47;5.32;89.73
18581;DHT22;9420;50.876;7.012;2024-03-06T07:45:14;5.35;90.48
18581;DHT22;9420;50.876;7.012;2024-03-06T07:47:42;5.45;89.66
18581;DHT22;9420;50.876;7.012;2024-03-06T07:50:10;5.46;89.49
18581;DHT22;9420;50.876;7.012;2024-03-06T07:52:37;5.50;89.07
18581;DHT22;9420;50.876;7.012;2024-03-06T07:55:05;5.45;88.97
18581;DHT22;9420;50.876;7.012;2024-03-06T07:57:32;5.42;89.22
18581;DHT22;9420;50.876;7.012;2024-03-06T07:59:58;5.60;89.00
18581;DHT22;9420;50.876;7.012;2024-03-06T08:02:25;5.81;88.53
18581;DHT22;9420;50.876;7.012;2024-03-06T08:04:54;5.87;88.42
18581;DHT22;9420;50.876;7.012;2024-03-06T08:07:21;5.73;88.06
18581;DHT22;9420;50.876;7.012;2024-03-06T08:09:47;5.81;88.84
18581;DHT22;9420;50.876;7.012;2024-03-06T08:12:14;5.66;88.99
18581;DHT22;9420;50.876;7.012;2024-03-06T08:14:41;5.73;89.46
18581;DHT22;9420;50.876;7.012;2024-03-06T08:17:08;5.69;89.14
18581;DHT22;9420;50.876;7.012;2024-03-06T08:19:34;6.27;88.19
18581;DHT22;9420;50.876;7.012;2024-03-06T08:22:02;6.32;88.10
18581;DHT22;9420;50.876;7.012;2024-03-06T08:24:29;6.14;88.05
18581;DHT22;9420;50.876;7.012;2024-03-06T08:26:55;6.24;88.71
18581;DHT22;9420;50.876;7.012;2024-03-06T08:29:22;6.14;88.04
18581;DHT22;9420;50.876;7.012;2024-03-06T08:31:49;6.10;89.05
18581;DHT22;9420;50.876;7.012;2024-03-06T08:34:15;6.00;88.85
18581;DHT22;9420;50.876;7.012;2024-03-06T08:36:43;6.07;87.98
18581;DHT22;9420;50.876;7.012;2024-03-06T08:39:11;6.10;88.57
18581;DHT22;9420;50.876;7.012;2024-03-06T08:41:41;6.10;88.98
18581;DHT22;9420;50.876;7.012;2024-03-06T08:44:08;6.16;88.99
18581;DHT22;9420;50.876;7.012;2024-03-06T08:46:34;6.04;88.45
18581;DHT22;9420;50.876;7.012;2024-03-06T08:49:01;6.20;88.19
18581;DHT22;9420;50.876;7.012;2024-03-06T08:51:28;5.93;88.74
18581;DHT22;9420;50.876;7.012;2024-03-06T08:53:54;6.17;88.48
18581;DHT22;9420;50.876;7.012;2024-03-06T08:56:22;6.14;88.42
18581;DHT22;9420;50.876;7.012;2024-03-06T08:58:49;6.45;88.49
18581;DHT22;9420;50.876;7.012;2024-03-06T09:01:15;6.46;87.97
18581;DHT22;9420;50.876;7.012;2024-03-06T09:03:42;6.49;88.37
18581;DHT22;9420;50.876;7.012;2024-03-06T09:06:09;6.42;87.85
18581;DHT22;9420;50.876;7.012;2024-03-06T09:08:36;6.50;87.34
18581;DHT22;9420;50.876;7.012;2024-03-06T09:11:03;6.45;87.07
18581;DHT22;9420;50.876;7.012;2024-03-06T09:13:31;6.48;87.27
18581;DHT22;9420;50.876;7.012;2024-03-06T09:15:57;6.50;86.80
18581;DHT22;9420;50.876;7.012;2024-03-06T09:18:24;6.64;87.28
18581;DHT22;9420;50.876;7.012;2024-03-06T09:20:51;6.66;87.08
18581;DHT22;9420;50.876;7.012;2024-03-06T09:23:18;6.58;86.42
18581;DHT22;9420;50.876;7.012;2024-03-06T09:25:47;6.53;86.07
18581;DHT22;9420;50.876;7.012;2024-03-06T09:28:14;6.53;86.20
18581;DHT22;9420;50.876;7.012;2024-03-06T09:30:42;6.69;86.01
18581;DHT22;9420;50.876;7.012;2024-03-06T09:33:10;6.83;86.34
18581;DHT22;9420;50.876;7.012;2024-03-06T09:35:38;6.94;85.86
18581;DHT22;9420;50.876;7.012;2024-03-06T09:38:10;7.08;86.24
18581;DHT22;9420;50.876;7.012;2024-03-06T09:40:38;7.00;85.25
18581;DHT22;9420;50.876;7.012;2024-03-06T09:43:05;7.20;85.15
18581;DHT22;9420;50.876;7.012;2024-03-06T09:45:32;7.28;84.44
18581;DHT22;9420;50.876;7.012;2024-03-06T09:48:00;7.36;85.55
18581;DHT22;9420;50.876;7.012;2024-03-06T09:50:29;7.55;84.45
18581;DHT22;9420;50.876;7.012;2024-03-06T09:53:00;7.56;84.77
18581;DHT22;9420;50.876;7.012;2024-03-06T09:55:29;7.86;84.96
18581;DHT22;9420;50.876;7.012;2024-03-06T09:57:56;8.02;85.18
18581;DHT22;9420;50.876;7.012;2024-03-06T10:00:23;8.09;85.01
18581;DHT22;9420;50.876;7.012;2024-03-06T10:02:54;8.17;84.36
18581;DHT22;9420;50.876;7.012;2024-03-06T10:05:24;8.16;84.16
18581;DHT22;9420;50.876;7.012;2024-03-06T10:07:52;8.26;84.14
18581;DHT22;9420;50.876;7.012;2024-03-06T10:10:19;8.33;82.75
18581;DHT22;9420;50.876;7.012;2024-03-06T10:12:48;8.50;81.48
18581;DHT22;9420;50.876;7.012;2024-03-06T10:15:15;8.68;81.17
18581;DHT22;9420;50.876;7.012;2024-03-06T10:17:42;9.09;82.82
18581;DHT22;9420;50.876;7.012;2024-03-06T10:20:19;9.36;81.97
18581;DHT22;9420;50.876;7.012;2024-03-06T10:22:50;9.50;81.07
18581;DHT22;9420;50.876;7.012;2024-03-06T10:25:18;9.67;81.52
18581;DHT22;9420;50.876;7.012;2024-03-06T10:27:45;9.43;81.24
18581;DHT22;9420;50.876;7.012;2024-03-06T10:30:13;9.58;80.23
18581;DHT22;9420;50.876;7.012;2024-03-06T10:32:41;9.75;80.79
18581;DHT22;9420;50.876;7.012;2024-03-06T10:35:17;10.03;80.79
18581;DHT22;9420;50.876;7.012;2024-03-06T10:37:45;10.05;80.51
18581;DHT22;9420;50.876;7.012;2024-03-06T10:40:14;10.32;80.76
18581;DHT22;9420;50.876;7.012;2024-03-06T10:42:42;9.71;78.81
18581;DHT22;9420;50.876;7.012;2024-03-06T10:45:13;9.82;78.88
18581;DHT22;9420;50.876;7.012;2024-03-06T10:47:40;10.02;79.68
18581;DHT22;9420;50.876;7.012;2024-03-06T10:50:09;10.06;78.55
18581;DHT22;9420;50.876;7.012;2024-03-06T10:52:38;10.10;78.79
18581;DHT22;9420;50.876;7.012;2024-03-06T10:55:07;10.49;79.88
18581;DHT22;9420;50.876;7.012;2024-03-06T10:57:37;10.37;77.95
18581;DHT22;9420;50.876;7.012;2024-03-06T11:00:05;10.67;78.87
18581;DHT22;9420;50.876;7.012;2024-03-06T11:02:32;11.10;78.29
18581;DHT22;9420;50.876;7.012;2024-03-06T11:05:03;11.01;77.81
18581;DHT22;9420;50.876;7.012;2024-03-06T11:07:31;11.12;77.68
18581;DHT22;9420;50.876;7.012;2024-03-06T11:09:58;11.25;76.79
18581;DHT22;9420;50.876;7.012;2024-03-06T11:12:37;11.87;76.84
18581;DHT22;9420;50.876;7.012;2024-03-06T11:15:13;12.49;76.94
18581;DHT22;9420;50.876;7.012;2024-03-06T11:17:40;12.66;75.27
18581;DHT22;9420;50.876;7.012;2024-03-06T11:20:16;12.89;75.04
18581;DHT22;9420;50.876;7.012;2024-03-06T11:23:07;13.26;73.75
18581;DHT22;9420;50.876;7.012;2024-03-06T11:26:10;13.30;71.02
18581;DHT22;9420;50.876;7.012;2024-03-06T11:28:38;14.14;71.03
18581;DHT22;9420;50.876;7.012;2024-03-06T11:31:16;15.36;67.65
18581;DHT22;9420;50.876;7.012;2024-03-06T11:33:45;17.20;64.93
18581;DHT22;9420;50.876;7.012;2024-03-06T11:36:16;17.58;59.44
18581;DHT22;9420;50.876;7.012;2024-03-06T11:38:47;17.76;60.07
18581;DHT22;9420;50.876;7.012;2024-03-06T11:41:14;18.67;57.64
18581;DHT22;9420;50.876;7.012;2024-03-06T11:43:44;19.06;56.10
18581;DHT22;9420;50.876;7.012;2024-03-06T11:46:11;19.56;55.01
18581;DHT22;9420;50.876;7.012;2024-03-06T11:48:37;20.87;52.61
18581;DHT22;9420;50.876;7.012;2024-03-06T11:51:04;18.36;56.61
18581;DHT22;9420;50.876;7.012;2024-03-06T11:53:32;18.79;55.28
18581;DHT22;9420;50.876;7.012;2024-03-06T11:56:00;19.68;52.77
18581;DHT22;9420;50.876;7.012;2024-03-06T11:58:26;18.50;53.92
18581;DHT22;9420;50.876;7.012;2024-03-06T12:00:54;17.39;55.18
18581;DHT22;9420;50.876;7.012;2024-03-06T12:03:22;16.65;57.62
18581;DHT22;9420;50.876;7.012;2024-03-06T12:05:50;15.87;60.98
18581;DHT22;9420;50.876;7.012;2024-03-06T12:08:17;15.60;62.14
18581;DHT22;9420;50.876;7.012;2024-03-06T12:10:45;15.42;62.84
18581;DHT22;9420;50.876;7.012;2024-03-06T12:13:12;15.51;61.98
18581;DHT22;9420;50.876;7.012;2024-03-06T12:15:41;15.80;60.55
18581;DHT22;9420;50.876;7.012;2024-03-06T12:18:09;16.42;59.04
18581;DHT22;9420;50.876;7.012;2024-03-06T12:20:41;17.61;59.30
18581;DHT22;9420;50.876;7.012;2024-03-06T12:23:19;18.27;57.65
18581;DHT22;9420;50.876;7.012;2024-03-06T12:25:45;19.99;54.88
18581;DHT22;9420;50.876;7.012;2024-03-06T12:28:12;22.08;48.88
18581;DHT22;9420;50.876;7.012;2024-03-06T12:30:41;22.51;48.15
18581;DHT22;9420;50.876;7.012;2024-03-06T12:33:09;21.96;48.36
18581;DHT22;9420;50.876;7.012;2024-03-06T12:35:40;21.27;50.74
18581;DHT22;9420;50.876;7.012;2024-03-06T12:38:16;22.49;47.88
18581;DHT22;9420;50.876;7.012;2024-03-06T12:40:43;21.82;46.41
18581;DHT22;9420;50.876;7.012;2024-03-06T12:43:09;22.43;45.15
18581;DHT22;9420;50.876;7.012;2024-03-06T12:45:36;23.00;44.50
18581;DHT22;9420;50.876;7.012;2024-03-06T12:48:05;23.04;45.01
18581;DHT22;9420;50.876;7.012;2024-03-06T12:50:33;23.55;44.65
18581;DHT22;9420;50.876;7.012;2024-03-06T12:52:59;22.43;43.60
18581;DHT22;9420;50.876;7.012;2024-03-06T12:55:26;21.37;45.57
18581;DHT22;9420;50.876;7.012;2024-03-06T12:57:53;22.31;43.83
18581;DHT22;9420;50.876;7.012;2024-03-06T13:00:20;21.67;44.81
18581;DHT22;9420;50.876;7.012;2024-03-06T13:02:46;23.27;40.22
18581;DHT22;9420;50.876;7.012;2024-03-06T13:05:13;23.20;39.65
18581;DHT22;9420;50.876;7.012;2024-03-06T13:07:42;21.90;42.52
18581;DHT22;9420;50.876;7.012;2024-03-06T13:10:09;21.86;42.35
18581;DHT22;9420;50.876;7.012;2024-03-06T13:12:36;21.67;40.98
18581;DHT22;9420;50.876;7.012;2024-03-06T13:15:04;23.03;41.99
18581;DHT22;9420;50.876;7.012;2024-03-06T13:17:32;23.86;38.07
18581;DHT22;9420;50.876;7.012;2024-03-06T13:19:59;23.75;39.16
18581;DHT22;9420;50.876;7.012;2024-03-06T13:22:26;23.65;39.71
18581;DHT22;9420;50.876;7.012;2024-03-06T13:24:54;23.16;40.69
18581;DHT22;9420;50.876;7.012;2024-03-06T13:27:22;24.88;37.96
18581;DHT22;9420;50.876;7.012;2024-03-06T13:29:49;25.70;36.29
18581;DHT22;9420;50.876;7.012;2024-03-06T13:32:17;22.77;40.70
18581;DHT22;9420;50.876;7.012;2024-03-06T13:34:44;23.44;38.42
18581;DHT22;9420;50.876;7.012;2024-03-06T13:37:11;22.92;40.18
18581;DHT22;9420;50.876;7.012;2024-03-06T13:39:37;21.22;43.03
18581;DHT22;9420;50.876;7.012;2024-03-06T13:42:07;22.81;39.46
18581;DHT22;9420;50.876;7.012;2024-03-06T13:44:38;23.49;38.95
18581;DHT22;9420;50.876;7.012;2024-03-06T13:47:14;23.68;37.65
18581;DHT22;9420;50.876;7.012;2024-03-06T13:49:42;24.05;37.16
18581;DHT22;9420;50.876;7.012;2024-03-06T13:52:10;22.65;40.15
18581;DHT22;9420;50.876;7.012;2024-03-06T13:54:39;24.98;36.60
18581;DHT22;9420;50.876;7.012;2024-03-06T13:57:08;24.28;37.71
18581;DHT22;9420;50.876;7.012;2024-03-06T13:59:36;24.35;36.65
18581;DHT22;9420;50.876;7.012;2024-03-06T14:02:04;24.88;35.46
18581;DHT22;9420;50.876;7.012;2024-03-06T14:04:30;23.79;38.56
18581;DHT22;9420;50.876;7.012;2024-03-06T14:06:57;25.67;35.18
18581;DHT22;9420;50.876;7.012;2024-03-06T14:09:28;25.03;36.21
18581;DHT22;9420;50.876;7.012;2024-03-06T14:12:05;25.08;36.87
18581;DHT22;9420;50.876;7.012;2024-03-06T14:14:33;24.26;36.96
18581;DHT22;9420;50.876;7.012;2024-03-06T14:17:00;24.53;37.78
18581;DHT22;9420;50.876;7.012;2024-03-06T14:19:27;22.49;39.85
18581;DHT22;9420;50.876;7.012;2024-03-06T14:21:54;22.24;40.36
18581;DHT22;9420;50.876;7.012;2024-03-06T14:24:20;18.57;44.48
18581;DHT22;9420;50.876;7.012;2024-03-06T14:26:47;19.36;45.00
18581;DHT22;9420;50.876;7.012;2024-03-06T14:29:15;20.06;43.39
18581;DHT22;9420;50.876;7.012;2024-03-06T14:31:43;17.61;47.93
18581;DHT22;9420;50.876;7.012;2024-03-06T14:34:10;19.31;45.94
18581;DHT22;9420;50.876;7.012;2024-03-06T14:36:36;21.20;41.78
18581;DHT22;9420;50.876;7.012;2024-03-06T14:39:03;19.36;44.89
18581;DHT22;9420;50.876;7.012;2024-03-06T14:41:30;15.50;52.12
18581;DHT22;9420;50.876;7.012;2024-03-06T14:43:57;14.45;54.13
18581;DHT22;9420;50.876;7.012;2024-03-06T14:46:24;14.53;56.04
18581;DHT22;9420;50.876;7.012;2024-03-06T14:48:51;16.33;51.34
18581;DHT22;9420;50.876;7.012;2024-03-06T14:51:18;14.91;53.41
18581;DHT22;9420;50.876;7.012;2024-03-06T14:53:45;14.40;55.27
18581;DHT22;9420;50.876;7.012;2024-03-06T14:56:11;14.20;56.61
18581;DHT22;9420;50.876;7.012;2024-03-06T14:58:38;14.41;55.35
18581;DHT22;9420;50.876;7.012;2024-03-06T15:01:04;17.93;48.64
18581;DHT22;9420;50.876;7.012;2024-03-06T15:03:31;19.84;44.02
18581;DHT22;9420;50.876;7.012;2024-03-06T15:05:59;21.12;42.03
18581;DHT22;9420;50.876;7.012;2024-03-06T15:08:26;21.24;40.06
18581;DHT22;9420;50.876;7.012;2024-03-06T15:10:52;21.96;39.06
18581;DHT22;9420;50.876;7.012;2024-03-06T15:13:20;22.35;39.59
18581;DHT22;9420;50.876;7.012;2024-03-06T15:15:48;21.97;39.77
18581;DHT22;9420;50.876;7.012;2024-03-06T15:18:16;21.96;39.84
18581;DHT22;9420;50.876;7.012;2024-03-06T15:20:42;21.48;40.63
18581;DHT22;9420;50.876;7.012;2024-03-06T15:23:10;22.33;40.96
18581;DHT22;9420;50.876;7.012;2024-03-06T15:25:37;22.24;40.99
18581;DHT22;9420;50.876;7.012;2024-03-06T15:28:04;20.74;41.71
18581;DHT22;9420;50.876;7.012;2024-03-06T15:30:31;21.18;40.78
18581;DHT22;9420;50.876;7.012;2024-03-06T15:32:59;22.28;39.77
18581;DHT22;9420;50.876;7.012;2024-03-06T15:35:28;21.21;40.15
18581;DHT22;9420;50.876;7.012;2024-03-06T15:37:54;21.22;40.73
18581;DHT22;9420;50.876;7.012;2024-03-06T15:40:22;20.19;42.26
18581;DHT22;9420;50.876;7.012;2024-03-06T15:42:50;20.19;43.70
18581;DHT22;9420;50.876;7.012;2024-03-06T15:45:16;20.09;42.72
18581;DHT22;9420;50.876;7.012;2024-03-06T15:47:43;19.36;44.12
18581;DHT22;9420;50.876;7.012;2024-03-06T15:50:10;17.99;46.37
18581;DHT22;9420;50.876;7.012;2024-03-06T15:52:37;17.71;48.53
18581;DHT22;9420;50.876;7.012;2024-03-06T15:55:04;18.17;47.71
18581;DHT22;9420;50.876;7.012;2024-03-06T15:57:32;17.93;47.27
18581;DHT22;9420;50.876;7.012;2024-03-06T16:00:00;16.01;51.59